Time;durP1;ratioP1;P1;durP2;ratioP2;P2;SDS_P1;SDS_P2;PMS_P1;PMS_P2;Temp;Humidity;BMP_temperature;BMP_pressure;BME280_temperature;BME280_humidity;BME280_pressure;Samples;Min_cycle;Max_cycle;Signal;HPM_P1;HPM_P2
2021/07/22 00:00:53;;;;;;;;;;;;;;;20.68;85.11;99676.59;4939039;28;20013;-64
2021/07/22 00:03:18;;;;;;;;;;;;;;;20.49;84.28;99671.66;4920618;29;20293;-64
2021/07/22 00:05:44;;;;;;;;;;;;;;;20.46;79.74;99670.09;4950024;28;19996;-64
2021/07/22 00:08:11;;;;;;;;;;;;;;;20.29;84.43;99670.28;4951099;28;19922;-64
2021/07/22 00:10:40;;;;;;;;;;;;;;;20.41;84.90;99669.53;4939494;28;19914;-64
2021/07/22 00:13:06;;;;;;;;;;;;;;;20.46;84.99;99667.47;4957731;28;19915;-64
2021/07/22 00:15:31;;;;;;;;;;;;;;;20.44;83.63;99669.34;4953784;28;19925;-64
2021/07/22 00:17:57;;;;;;;;;;;;;;;20.56;85.25;99666.88;4925978;29;19915;-65
2021/07/22 00:20:22;;;;;;;;;;;;;;;20.36;85.44;99663.72;4947163;28;19921;-64
2021/07/22 00:22:48;;;;;;;;;;;;;;;20.27;87.26;99666.91;4955800;28;19915;-64
2021/07/22 00:25:13;;;;;;;;;;;;;;;19.90;87.73;99669.16;4965163;28;19915;-64
2021/07/22 00:27:39;;;;;;;;;;;;;;;20.21;83.97;99657.69;4945159;29;19919;-63
2021/07/22 00:30:05;;;;;;;;;;;;;;;20.32;84.90;99664.00;4949521;28;20406;-64
2021/07/22 00:32:30;;;;;;;;;;;;;;;20.26;86.83;99660.00;4924260;29;19923;-64
2021/07/22 00:34:56;;;;;;;;;;;;;;;20.27;81.66;99659.06;4950727;28;19989;-64
2021/07/22 00:37:21;;;;;;;;;;;;;;;19.95;88.10;99659.25;4943331;28;20009;-65
2021/07/22 00:39:47;;;;;;;;;;;;;;;20.01;89.57;99658.88;4943328;28;20371;-64
2021/07/22 00:42:12;;;;;;;;;;;;;;;20.04;85.75;99655.25;4947121;28;19914;-64
2021/07/22 00:44:38;;;;;;;;;;;;;;;20.01;86.50;99653.66;4939112;28;20269;-64
2021/07/22 00:47:03;;;;;;;;;;;;;;;20.07;89.08;99649.84;4942229;29;19920;-64
2021/07/22 00:49:29;;;;;;;;;;;;;;;19.82;85.83;99650.47;4948124;28;19915;-64
2021/07/22 00:51:54;;;;;;;;;;;;;;;19.71;91.22;99655.50;4948088;28;19922;-64
2021/07/22 00:54:21;;;;;;;;;;;;;;;19.76;88.59;99650.84;4950324;28;19919;-64
2021/07/22 00:56:47;;;;;;;;;;;;;;;20.11;86.63;99650.47;4953224;28;19930;-64
2021/07/22 00:59:12;;;;;;;;;;;;;;;19.95;92.74;99651.41;4938275;28;19919;-64
2021/07/22 01:01:38;;;;;;;;;;;;;;;19.92;84.96;99650.75;4956375;28;19918;-64
2021/07/22 01:04:04;;;;;;;;;;;;;;;20.03;87.55;99649.19;4967616;28;19998;-64
2021/07/22 01:06:29;;;;;;;;;;;;;;;19.72;91.06;99650.16;4945401;28;20013;-64
2021/07/22 01:08:55;;;;;;;;;;;;;;;19.83;89.15;99650.38;4951137;28;19922;-64
2021/07/22 01:11:20;;;;;;;;;;;;;;;19.60;93.36;99646.47;4954675;28;19922;-64
2021/07/22 01:13:46;;;;;;;;;;;;;;;19.74;90.08;99647.47;4950750;28;19946;-64
2021/07/22 01:16:11;;;;;;;;;;;;;;;19.84;92.09;99648.59;4931721;29;20051;-64
2021/07/22 01:18:37;;;;;;;;;;;;;;;19.64;91.64;99648.00;4950300;28;20361;-64
2021/07/22 01:21:04;;;;;;;;;;;;;;;19.72;90.69;99649.34;4947212;28;20388;-64
2021/07/22 01:23:30;;;;;;;;;;;;;;;19.63;91.16;99651.50;4940436;28;20393;-64
2021/07/22 01:25:55;;;;;;;;;;;;;;;19.59;92.35;99650.03;4953478;28;19915;-64
2021/07/22 01:28:21;;;;;;;;;;;;;;;19.15;94.76;99644.78;4954351;28;19914;-64
2021/07/22 01:30:46;;;;;;;;;;;;;;;19.22;95.64;99646.94;4953501;28;19946;-63
2021/07/22 01:33:12;;;;;;;;;;;;;;;19.27;95.61;99648.44;4948932;28;19919;-64
2021/07/22 01:35:37;;;;;;;;;;;;;;;19.50;89.44;99645.34;4930679;29;19941;-63
2021/07/22 01:38:03;;;;;;;;;;;;;;;19.20;94.52;99648.81;4937426;28;19921;-64
2021/07/22 01:40:28;;;;;;;;;;;;;;;19.14;94.67;99649.16;4919654;29;20488;-64
2021/07/22 01:42:54;;;;;;;;;;;;;;;19.03;99.08;99646.31;4950059;28;20289;-64
2021/07/22 01:45:19;;;;;;;;;;;;;;;18.93;98.80;99643.38;4935979;28;19915;-64
2021/07/22 01:47:46;;;;;;;;;;;;;;;18.92;96.95;99643.47;4951158;28;19914;-64
2021/07/22 01:50:11;;;;;;;;;;;;;;;18.79;100.00;99638.06;4942504;28;19922;-64
2021/07/22 01:52:37;;;;;;;;;;;;;;;18.97;99.04;99641.44;4940378;28;19914;-64
2021/07/22 01:55:02;;;;;;;;;;;;;;;18.91;98.62;99641.78;4936564;29;20293;-64
2021/07/22 01:57:28;;;;;;;;;;;;;;;19.15;96.31;99640.38;4951006;28;19965;-64
2021/07/22 01:59:53;;;;;;;;;;;;;;;18.58;99.86;99640.09;4944386;28;20005;-64
2021/07/22 02:02:19;;;;;;;;;;;;;;;18.68;100.00;99636.06;4939029;28;20014;-64
2021/07/22 02:04:44;;;;;;;;;;;;;;;18.56;100.00;99636.72;4952492;29;20022;-64
2021/07/22 02:07:10;;;;;;;;;;;;;;;18.78;97.70;99637.25;4972328;28;19920;-64
2021/07/22 02:09:36;;;;;;;;;;;;;;;19.11;96.47;99638.91;4952652;28;19914;-64
2021/07/22 02:12:02;;;;;;;;;;;;;;;19.48;96.77;99639.38;4947279;28;20388;-64
2021/07/22 02:14:28;;;;;;;;;;;;;;;19.45;93.35;99631.69;4950054;28;19915;-64
2021/07/22 02:16:53;;;;;;;;;;;;;;;19.34;95.30;99629.75;4952468;29;19977;-64
2021/07/22 02:19:19;;;;;;;;;;;;;;;19.48;93.94;99626.31;4969167;28;20001;-64
2021/07/22 02:21:44;;;;;;;;;;;;;;;19.40;92.87;99629.34;4944348;28;19957;-64
2021/07/22 02:24:11;;;;;;;;;;;;;;;19.06;97.99;99620.03;4952644;28;19981;-64
2021/07/22 02:26:36;;;;;;;;;;;;;;;18.94;96.77;99631.16;4952170;28;19969;-64
2021/07/22 02:29:03;;;;;;;;;;;;;;;19.34;96.01;99623.66;4952686;28;19922;-64
2021/07/22 02:31:28;;;;;;;;;;;;;;;19.42;91.91;99621.44;4952540;29;20257;-64
2021/07/22 02:33:53;;;;;;;;;;;;;;;19.65;90.39;99618.31;4949191;28;19974;-64
2021/07/22 02:36:19;;;;;;;;;;;;;;;19.62;86.17;99628.94;4963541;28;20308;-64
2021/07/22 02:38:44;;;;;;;;;;;;;;;19.40;94.92;99628.53;4950582;28;19918;-64
2021/07/22 02:41:11;;;;;;;;;;;;;;;18.99;97.06;99629.13;4948500;28;19961;-64
2021/07/22 02:43:36;;;;;;;;;;;;;;;18.33;100.00;99624.91;4936113;29;19922;-64
2021/07/22 02:46:11;;;;;;;;;;;;;;;18.32;100.00;99624.09;4947572;28;19919;-64
2021/07/22 02:48:37;;;;;;;;;;;;;;;18.30;100.00;99623.31;4939016;28;20478;-64
2021/07/22 02:51:02;;;;;;;;;;;;;;;18.53;100.00;99618.63;4937169;28;19915;-63
2021/07/22 02:53:28;;;;;;;;;;;;;;;19.04;97.21;99621.88;4947297;28;19921;-63
2021/07/22 02:55:57;;;;;;;;;;;;;;;19.21;98.90;99623.53;4937763;28;20017;-64
2021/07/22 02:58:23;;;;;;;;;;;;;;;19.49;97.24;99627.97;4937717;28;19930;-64
2021/07/22 03:00:48;;;;;;;;;;;;;;;19.62;91.48;99623.72;4931912;28;20288;-64
2021/07/22 03:03:13;;;;;;;;;;;;;;;19.56;86.85;99626.69;4915386;29;19921;-64
2021/07/22 03:05:39;;;;;;;;;;;;;;;19.37;95.90;99624.31;4949928;29;19973;-64
2021/07/22 03:08:04;;;;;;;;;;;;;;;18.74;100.00;99629.63;4973001;28;19937;-64
2021/07/22 03:10:30;;;;;;;;;;;;;;;18.34;99.52;99631.84;4951204;28;20340;-64
2021/07/22 03:12:55;;;;;;;;;;;;;;;18.53;98.01;99626.47;4939747;29;19915;-64
2021/07/22 03:15:21;;;;;;;;;;;;;;;18.74;98.95;99632.25;4940534;29;19952;-64
2021/07/22 03:17:46;;;;;;;;;;;;;;;19.14;100.00;99627.44;4919630;29;19914;-64
2021/07/22 03:20:12;;;;;;;;;;;;;;;18.90;98.29;99624.44;4935126;28;19938;-64
2021/07/22 03:22:37;;;;;;;;;;;;;;;18.78;100.00;99639.03;4933528;29;20013;-64
2021/07/22 03:25:03;;;;;;;;;;;;;;;18.52;100.00;99629.97;4936909;28;19919;-64
2021/07/22 03:27:29;;;;;;;;;;;;;;;18.37;100.00;99637.72;4932881;28;19922;-64
2021/07/22 03:29:54;;;;;;;;;;;;;;;18.22;100.00;99629.88;4932650;28;19915;-64
2021/07/22 03:32:20;;;;;;;;;;;;;;;18.43;100.00;99625.25;4943586;28;20289;-64
2021/07/22 03:34:45;;;;;;;;;;;;;;;18.65;100.00;99631.00;4950576;28;19922;-64
2021/07/22 03:37:10;;;;;;;;;;;;;;;18.91;100.00;99626.13;4951121;28;19922;-64
2021/07/22 03:39:36;;;;;;;;;;;;;;;19.01;98.44;99627.28;4937347;28;20344;-64
2021/07/22 03:42:01;;;;;;;;;;;;;;;18.95;96.20;99622.41;4940052;28;20446;-64
2021/07/22 03:44:27;;;;;;;;;;;;;;;19.41;95.99;99612.78;4937412;28;19914;-64
2021/07/22 03:46:53;;;;;;;;;;;;;;;19.11;100.00;99617.16;4950961;28;19915;-64
2021/07/22 03:49:18;;;;;;;;;;;;;;;19.34;98.46;99621.91;4921647;29;19921;-64
2021/07/22 03:51:44;;;;;;;;;;;;;;;19.35;95.31;99617.50;4936859;29;19926;-64
2021/07/22 03:54:09;;;;;;;;;;;;;;;19.54;94.64;99614.66;4945324;28;20449;-64
2021/07/22 03:56:35;;;;;;;;;;;;;;;19.16;93.44;99612.53;4938770;29;20554;-64
2021/07/22 03:59:00;;;;;;;;;;;;;;;19.43;99.09;99612.66;4948805;29;20296;-64
2021/07/22 04:01:26;;;;;;;;;;;;;;;19.11;99.18;99611.94;4936436;28;19922;-64
2021/07/22 04:03:54;;;;;;;;;;;;;;;19.13;98.05;99616.13;4940136;28;19918;-64
2021/07/22 04:06:19;;;;;;;;;;;;;;;18.82;100.00;99617.06;4936119;29;19937;-64
2021/07/22 04:08:45;;;;;;;;;;;;;;;19.16;100.00;99615.97;4949162;28;19914;-64
2021/07/22 04:11:10;;;;;;;;;;;;;;;19.34;96.32;99618.44;4941965;28;19915;-64
2021/07/22 04:13:36;;;;;;;;;;;;;;;18.80;100.00;99627.56;4940923;28;20299;-63
2021/07/22 04:16:02;;;;;;;;;;;;;;;18.76;100.00;99619.97;4933601;28;19961;-63
2021/07/22 04:18:28;;;;;;;;;;;;;;;19.00;100.00;99620.41;4939284;28;19919;-64
2021/07/22 04:20:53;;;;;;;;;;;;;;;18.92;100.00;99617.38;4943895;28;19922;-64
2021/07/22 04:23:18;;;;;;;;;;;;;;;19.05;98.97;99617.53;4946611;28;19919;-64
2021/07/22 04:25:46;;;;;;;;;;;;;;;19.38;96.98;99609.50;4943211;29;20324;-63
2021/07/22 04:28:11;;;;;;;;;;;;;;;19.13;100.00;99616.13;4939155;28;19915;-64
2021/07/22 04:30:38;;;;;;;;;;;;;;;18.95;100.00;99619.78;4924671;29;20018;-64
2021/07/22 04:33:03;;;;;;;;;;;;;;;18.66;100.00;99616.19;4923042;29;20550;-64
2021/07/22 04:35:28;;;;;;;;;;;;;;;19.24;99.05;99618.13;4949252;28;20062;-64
2021/07/22 04:37:54;;;;;;;;;;;;;;;19.31;94.22;99613.41;4936642;28;20049;-64
2021/07/22 04:40:19;;;;;;;;;;;;;;;18.55;100.00;99619.38;4932783;29;19962;-64
2021/07/22 04:42:45;;;;;;;;;;;;;;;19.05;100.00;99623.56;4936980;28;20372;-64
2021/07/22 04:45:10;;;;;;;;;;;;;;;19.27;100.00;99617.09;4940601;28;19918;-64
2021/07/22 04:47:36;;;;;;;;;;;;;;;19.22;100.00;99615.59;4935465;28;19946;-64
2021/07/22 04:50:02;;;;;;;;;;;;;;;19.36;100.00;99611.34;4935427;28;19966;-64
2021/07/22 04:52:27;;;;;;;;;;;;;;;19.18;100.00;99614.13;4948205;28;19926;-64
2021/07/22 04:54:52;;;;;;;;;;;;;;;19.56;100.00;99603.16;4936152;28;19915;-64
2021/07/22 04:57:18;;;;;;;;;;;;;;;19.67;98.16;99614.78;4942353;29;19922;-64
2021/07/22 04:59:43;;;;;;;;;;;;;;;19.41;100.00;99609.31;4936416;28;20424;-64
2021/07/22 05:02:09;;;;;;;;;;;;;;;19.50;100.00;99608.78;4948591;28;19915;-64
2021/07/22 05:04:34;;;;;;;;;;;;;;;19.61;100.00;99605.50;4947225;28;20708;-64
2021/07/22 05:07:00;;;;;;;;;;;;;;;19.81;98.72;99602.56;4962311;28;19951;-64
2021/07/22 05:09:25;;;;;;;;;;;;;;;19.99;98.71;99605.84;4935285;28;20274;-64
2021/07/22 05:11:51;;;;;;;;;;;;;;;20.09;99.29;99613.13;4939939;28;20392;-64
2021/07/22 05:14:16;;;;;;;;;;;;;;;20.15;98.05;99617.97;4933654;29;20380;-64
2021/07/22 05:16:41;;;;;;;;;;;;;;;20.25;99.62;99616.47;4923660;29;20332;-64
2021/07/22 05:19:09;;;;;;;;;;;;;;;20.34;94.17;99620.28;4951340;28;19915;-64
2021/07/22 05:21:34;;;;;;;;;;;;;;;20.33;90.85;99624.69;4940703;28;19977;-64
2021/07/22 05:24:00;;;;;;;;;;;;;;;19.99;100.00;99618.91;4949817;28;19966;-64
2021/07/22 05:26:25;;;;;;;;;;;;;;;20.18;99.13;99625.63;4935599;29;19953;-64
2021/07/22 05:28:51;;;;;;;;;;;;;;;19.89;100.00;99615.19;4953065;28;19914;-64
2021/07/22 05:31:16;;;;;;;;;;;;;;;19.85;100.00;99617.13;4945621;28;20042;-64
2021/07/22 05:33:42;;;;;;;;;;;;;;;19.65;100.00;99617.47;4952590;28;20012;-64
2021/07/22 05:36:08;;;;;;;;;;;;;;;19.78;100.00;99613.22;4944864;28;20415;-64
2021/07/22 05:38:34;;;;;;;;;;;;;;;19.74;100.00;99605.66;4952658;28;19915;-64
2021/07/22 05:41:00;;;;;;;;;;;;;;;19.85;100.00;99608.47;4953102;28;19921;-64
2021/07/22 05:43:26;;;;;;;;;;;;;;;19.99;100.00;99605.84;4944158;28;20010;-64
2021/07/22 05:45:51;;;;;;;;;;;;;;;20.11;100.00;99608.63;4953226;28;19921;-64
2021/07/22 05:48:16;;;;;;;;;;;;;;;20.24;96.08;99609.56;4956330;28;19914;-64
2021/07/22 05:50:42;;;;;;;;;;;;;;;20.06;98.99;99612.38;4953564;28;20093;-64
2021/07/22 05:53:07;;;;;;;;;;;;;;;20.05;95.33;99615.94;4939069;28;19933;-64
2021/07/22 05:55:33;;;;;;;;;;;;;;;20.04;99.63;99614.25;4940725;29;19919;-64
2021/07/22 05:57:58;;;;;;;;;;;;;;;19.95;100.00;99614.81;4929492;29;20453;-64
2021/07/22 06:00:23;;;;;;;;;;;;;;;19.91;99.46;99613.34;4934180;28;19925;-64
2021/07/22 06:02:49;;;;;;;;;;;;;;;20.24;99.23;99609.56;4947114;28;19922;-64
2021/07/22 06:05:15;;;;;;;;;;;;;;;20.59;96.58;99614.38;4940494;28;19958;-64
2021/07/22 06:07:41;;;;;;;;;;;;;;;20.43;96.02;99609.25;4936501;28;20359;-64
2021/07/22 06:10:07;;;;;;;;;;;;;;;20.82;98.88;99615.53;4938633;28;20006;-64
2021/07/22 06:12:32;;;;;;;;;;;;;;;20.94;96.13;99621.72;4927098;28;19923;-64
2021/07/22 06:14:57;;;;;;;;;;;;;;;20.70;97.05;99619.78;4941557;28;20443;-64
2021/07/22 06:17:23;;;;;;;;;;;;;;;20.78;94.40;99620.13;4935941;28;19915;-64
2021/07/22 06:19:49;;;;;;;;;;;;;;;20.86;96.65;99617.84;4937731;28;19915;-64
2021/07/22 06:22:14;;;;;;;;;;;;;;;20.64;96.70;99621.00;4935109;28;19918;-64
2021/07/22 06:24:40;;;;;;;;;;;;;;;20.66;97.88;99616.53;4948789;29;19933;-64
2021/07/22 06:27:05;;;;;;;;;;;;;;;20.58;98.51;99616.16;4946499;28;19922;-64
2021/07/22 06:29:31;;;;;;;;;;;;;;;20.82;97.87;99620.75;4930963;29;19914;-64
2021/07/22 06:31:56;;;;;;;;;;;;;;;20.79;92.00;99610.50;4934218;28;20297;-64
2021/07/22 06:34:21;;;;;;;;;;;;;;;21.16;91.91;99616.78;4947200;28;19945;-64
2021/07/22 06:36:47;;;;;;;;;;;;;;;20.95;93.92;99618.19;4952085;28;19914;-64
2021/07/22 06:39:12;;;;;;;;;;;;;;;21.14;95.44;99621.28;4938034;28;20337;-64
2021/07/22 06:41:38;;;;;;;;;;;;;;;21.00;96.53;99618.72;4934668;29;19925;-64
2021/07/22 06:44:03;;;;;;;;;;;;;;;21.42;93.82;99625.56;4934485;29;19998;-64
2021/07/22 06:46:29;;;;;;;;;;;;;;;21.08;97.92;99619.06;4933407;29;19943;-64
2021/07/22 06:48:57;;;;;;;;;;;;;;;20.99;100.00;99611.81;4945691;28;22985;-64
2021/07/22 06:51:24;;;;;;;;;;;;;;;21.45;95.78;99620.09;4937680;28;20006;-64
2021/07/22 06:53:51;;;;;;;;;;;;;;;21.62;92.43;99615.50;4940432;28;19914;-64
2021/07/22 06:56:16;;;;;;;;;;;;;;;21.73;93.98;99618.22;4938243;28;19947;-64
2021/07/22 06:58:42;;;;;;;;;;;;;;;21.80;96.90;99613.41;4939500;28;19964;-64
2021/07/22 07:01:07;;;;;;;;;;;;;;;21.83;92.55;99623.72;4937058;29;19914;-64
2021/07/22 07:03:32;;;;;;;;;;;;;;;21.78;96.24;99618.78;4939796;28;19977;-64
2021/07/22 07:05:58;;;;;;;;;;;;;;;22.38;91.88;99609.38;4940469;28;19966;-64
2021/07/22 07:08:23;;;;;;;;;;;;;;;22.27;93.10;99617.16;4948163;28;20393;-64
2021/07/22 07:10:49;;;;;;;;;;;;;;;22.21;nan;99612.31;4948064;29;19915;-64
2021/07/22 07:13:14;;;;;;;;;;;;;;;22.11;94.99;99612.97;4952702;28;19918;-64
2021/07/22 07:15:40;;;;;;;;;;;;;;;22.53;91.96;99624.03;4946517;28;19977;-64
2021/07/22 07:18:05;;;;;;;;;;;;;;;22.28;93.73;99618.84;4950650;28;19926;-64
2021/07/22 07:20:31;;;;;;;;;;;;;;;22.48;89.79;99622.66;4940401;29;19915;-64
2021/07/22 07:22:57;;;;;;;;;;;;;;;22.60;90.91;99615.69;4950580;28;19915;-64
2021/07/22 07:25:22;;;;;;;;;;;;;;;22.44;91.76;99624.69;4933300;29;19937;-64
2021/07/22 07:27:48;;;;;;;;;;;;;;;22.60;91.11;99618.31;4933408;28;19975;-63
2021/07/22 07:30:14;;;;;;;;;;;;;;;22.82;92.71;99621.06;4936656;28;19915;-64
2021/07/22 07:32:39;;;;;;;;;;;;;;;23.18;86.71;99621.97;4961566;28;19925;-64
2021/07/22 07:35:05;;;;;;;;;;;;;;;23.46;87.31;99625.16;4944342;28;20670;-64
2021/07/22 07:37:30;;;;;;;;;;;;;;;23.45;84.63;99626.13;4945422;28;19915;-64
2021/07/22 07:39:56;;;;;;;;;;;;;;;24.19;79.76;99616.88;4940154;29;19954;-64
2021/07/22 07:42:22;;;;;;;;;;;;;;;24.46;77.01;99620.91;4950188;28;19919;-64
2021/07/22 07:44:48;;;;;;;;;;;;;;;24.51;75.37;99626.66;4944058;28;19922;-64
2021/07/22 07:47:13;;;;;;;;;;;;;;;24.66;72.14;99618.53;4947663;29;19914;-65
2021/07/22 07:49:39;;;;;;;;;;;;;;;24.87;73.38;99622.03;4951261;29;19915;-65
2021/07/22 07:52:05;;;;;;;;;;;;;;;25.10;72.01;99619.31;4938625;28;19915;-65
2021/07/22 07:54:30;;;;;;;;;;;;;;;25.50;68.24;99621.25;4951380;28;19954;-65
2021/07/22 07:56:56;;;;;;;;;;;;;;;25.56;68.04;99618.94;4948856;28;19929;-65
2021/07/22 07:59:21;;;;;;;;;;;;;;;25.86;62.55;99615.53;4947757;29;19921;-65
2021/07/22 08:01:49;;;;;;;;;;;;;;;26.06;64.52;99620.91;4951527;28;20117;-66
2021/07/22 08:04:14;;;;;;;;;;;;;;;26.45;60.06;99619.19;4937838;29;20437;-65
2021/07/22 08:06:40;;;;;;;;;;;;;;;26.50;60.58;99624.06;4953522;28;19915;-66
2021/07/22 08:09:05;;;;;;;;;;;;;;;26.96;56.70;99625.28;4947514;29;19970;-66
2021/07/22 08:11:31;;;;;;;;;;;;;;;27.89;55.02;99618.47;4956149;28;20009;-66
2021/07/22 08:13:56;;;;;;;;;;;;;;;28.06;51.69;99624.84;4947545;28;19998;-66
2021/07/22 08:16:22;;;;;;;;;;;;;;;26.15;51.46;99619.25;4953265;28;19926;-66
2021/07/22 08:18:49;;;;;;;;;;;;;;;26.48;57.39;99615.47;4946812;29;20445;-66
2021/07/22 08:21:15;;;;;;;;;;;;;;;26.44;53.56;99624.63;4949550;28;19914;-66
2021/07/22 08:23:40;;;;;;;;;;;;;;;27.57;46.36;99618.00;4916458;29;20014;-66
2021/07/22 08:26:06;;;;;;;;;;;;;;;27.41;47.14;99618.59;4932961;28;19950;-66
2021/07/22 08:28:32;;;;;;;;;;;;;;;28.38;45.65;99614.78;4944330;28;20054;-66
2021/07/22 08:30:57;;;;;;;;;;;;;;;28.07;50.43;99615.06;4943600;28;19914;-66
2021/07/22 08:33:23;;;;;;;;;;;;;;;28.10;45.84;99614.78;4954447;28;20395;-65
2021/07/22 08:35:48;;;;;;;;;;;;;;;27.67;42.98;99618.84;4950003;29;19930;-66
2021/07/22 08:38:14;;;;;;;;;;;;;;;26.96;43.06;99625.28;4950085;28;19921;-66
2021/07/22 08:40:40;;;;;;;;;;;;;;;27.51;50.51;99609.66;4948368;28;19915;-66
2021/07/22 08:43:06;;;;;;;;;;;;;;;28.34;44.21;99607.13;4938526;28;20017;-66
2021/07/22 08:45:31;;;;;;;;;;;;;;;28.86;42.50;99605.69;4931303;29;19955;-66
2021/07/22 08:47:58;;;;;;;;;;;;;;;27.44;44.68;99613.03;4940067;29;19915;-65
2021/07/22 08:50:23;;;;;;;;;;;;;;;25.30;47.34;99609.78;4935879;28;20033;-66
2021/07/22 08:52:50;;;;;;;;;;;;;;;26.78;52.77;99611.09;4938685;28;20058;-66
2021/07/22 08:55:16;;;;;;;;;;;;;;;28.26;43.33;99620.28;4955521;28;19919;-66
2021/07/22 08:57:41;;;;;;;;;;;;;;;25.07;46.16;99612.50;4944724;29;19938;-66
2021/07/22 09:00:07;;;;;;;;;;;;;;;25.31;49.42;99609.63;4938121;29;19923;-66
2021/07/22 09:02:33;;;;;;;;;;;;;;;25.19;52.97;99605.41;4951068;28;19937;-65
2021/07/22 09:05:00;;;;;;;;;;;;;;;25.99;47.50;99603.94;4959889;28;19922;-66
2021/07/22 09:07:26;;;;;;;;;;;;;;;25.39;51.08;99612.47;4950834;28;20369;-66
2021/07/22 09:10:03;;;;;;;;;;;;;;;25.33;51.65;99606.88;4968001;28;19914;-66
2021/07/22 09:12:35;;;;;;;;;;;;;;;26.28;47.53;99606.66;4938983;29;20349;-65
2021/07/22 09:15:01;;;;;;;;;;;;;;;27.24;44.96;99601.66;4941615;28;19924;-66
2021/07/22 09:17:27;;;;;;;;;;;;;;;26.64;45.28;99610.53;4951815;28;20005;-66
2021/07/22 09:19:52;;;;;;;;;;;;;;;25.77;52.74;99608.41;4953488;28;19933;-66
2021/07/22 09:22:18;;;;;;;;;;;;;;;26.37;51.98;99603.22;4945860;28;19914;-66
2021/07/22 09:24:50;;;;;;;;;;;;;;;24.72;52.02;99610.94;4951709;28;19950;-66
2021/07/22 09:27:34;;;;;;;;;;;;;;;25.32;55.62;99606.03;4956736;28;19989;-65
2021/07/22 09:30:00;;;;;;;;;;;;;;;24.52;53.78;99607.28;4973367;28;19919;-66
2021/07/22 09:32:32;;;;;;;;;;;;;;;24.54;52.99;99605.38;4952092;28;19922;-66
2021/07/22 09:35:11;;;;;;;;;;;;;;;25.49;49.02;99607.25;4949105;29;20325;-66
2021/07/22 09:37:39;;;;;;;;;;;;;;;26.76;51.13;99605.13;4950162;28;19925;-66
2021/07/22 09:40:05;;;;;;;;;;;;;;;24.58;57.99;99609.41;4940796;28;19915;-66
2021/07/22 09:42:49;;;;;;;;;;;;;;;24.46;54.64;99614.81;4944398;28;20444;-66
2021/07/22 09:45:18;;;;;;;;;;;;;;;25.04;59.81;99608.31;4931269;29;20285;-66
2021/07/22 09:47:44;;;;;;;;;;;;;;;25.84;57.74;99609.53;4943799;29;19982;-66
2021/07/22 09:50:14;;;;;;;;;;;;;;;25.78;57.98;99617.13;4942612;28;19919;-65
2021/07/22 09:52:40;;;;;;;;;;;;;;;25.38;62.92;99609.97;4925355;28;19919;-66
2021/07/22 09:55:26;;;;;;;;;;;;;;;24.99;61.40;99607.84;4952793;28;19941;-66
2021/07/22 09:57:55;;;;;;;;;;;;;;;24.94;61.26;99606.56;4951565;28;19923;-66
2021/07/22 10:00:21;;;;;;;;;;;;;;;25.93;60.78;99605.28;4948581;28;19914;-66
2021/07/22 10:02:47;;;;;;;;;;;;;;;25.70;61.69;99607.22;4936224;29;20009;-66
2021/07/22 10:05:13;;;;;;;;;;;;;;;26.01;60.55;99596.72;4936822;28;19981;-66
2021/07/22 10:07:40;;;;;;;;;;;;;;;26.05;60.52;99603.41;4934913;28;20300;-66
2021/07/22 10:10:05;;;;;;;;;;;;;;;25.90;60.44;99599.44;4938830;28;20364;-66
2021/07/22 10:12:31;;;;;;;;;;;;;;;26.96;54.14;99601.50;4935209;29;19922;-66
2021/07/22 10:14:57;;;;;;;;;;;;;;;24.99;64.96;99597.28;4940325;28;19918;-66
2021/07/22 10:17:31;;;;;;;;;;;;;;;25.73;62.92;99596.44;4941192;29;20439;-66
2021/07/22 10:19:57;;;;;;;;;;;;;;;25.35;62.14;99599.69;4951004;29;19914;-66
2021/07/22 10:22:23;;;;;;;;;;;;;;;25.70;62.71;99594.03;4943740;28;20103;-66
2021/07/22 10:24:51;;;;;;;;;;;;;;;25.99;55.84;99591.56;4923576;29;20012;-66
2021/07/22 10:27:17;;;;;;;;;;;;;;;26.54;54.23;99582.38;4944710;28;19923;-65
2021/07/22 10:29:42;;;;;;;;;;;;;;;25.76;61.10;99592.69;4933113;29;19922;-66
2021/07/22 10:32:08;;;;;;;;;;;;;;;27.70;52.70;99584.94;4950252;29;20014;-66
2021/07/22 10:34:33;;;;;;;;;;;;;;;28.24;47.10;99579.88;4946423;28;19914;-65
2021/07/22 10:36:59;;;;;;;;;;;;;;;26.58;54.55;99582.00;4942211;29;19921;-66
2021/07/22 10:39:43;;;;;;;;;;;;;;;27.34;49.84;99581.28;4939414;28;20021;-65
2021/07/22 10:42:24;;;;;;;;;;;;;;;28.26;45.81;99580.56;4933654;29;20006;-65
2021/07/22 10:44:50;;;;;;;;;;;;;;;27.17;53.04;99580.19;4936923;29;20285;-66
2021/07/22 10:47:15;;;;;;;;;;;;;;;26.16;55.10;99576.03;4959252;28;19914;-66
2021/07/22 10:49:41;;;;;;;;;;;;;;;25.66;62.23;99584.75;4949636;29;19915;-66
2021/07/22 10:52:08;;;;;;;;;;;;;;;25.92;60.25;99571.13;4949057;28;19914;-66
2021/07/22 10:54:48;;;;;;;;;;;;;;;26.41;56.88;99572.94;4949179;28;19915;-65
2021/07/22 10:57:46;;;;;;;;;;;;;;;29.11;46.11;99567.81;4942728;28;19981;-66
2021/07/22 11:00:12;;;;;;;;;;;;;;;27.72;51.52;99559.19;4913443;28;19953;-66
2021/07/22 11:02:39;;;;;;;;;;;;;;;28.25;54.03;99565.63;4952394;28;19945;-65
2021/07/22 11:05:05;;;;;;;;;;;;;;;30.82;45.91;99572.19;4923488;29;19914;-66
2021/07/22 11:07:30;;;;;;;;;;;;;;;31.40;41.84;99558.84;4951984;28;19949;-65
2021/07/22 11:09:58;;;;;;;;;;;;;;;31.14;41.05;99561.75;4952510;28;20001;-66
2021/07/22 11:12:32;;;;;;;;;;;;;;;29.47;42.73;99561.56;4952060;28;19921;-66
2021/07/22 11:14:59;;;;;;;;;;;;;;;27.00;51.79;99565.84;4963506;28;20304;-66
2021/07/22 11:17:35;;;;;;;;;;;;;;;27.26;48.92;99562.69;4950072;28;20467;-66
2021/07/22 11:20:19;;;;;;;;;;;;;;;28.33;46.01;99557.78;4944374;28;19914;-66
2021/07/22 11:22:48;;;;;;;;;;;;;;;26.88;49.47;99561.72;4945997;28;19921;-66
2021/07/22 11:25:14;;;;;;;;;;;;;;;25.71;60.25;99558.78;4950073;29;19914;-66
2021/07/22 11:27:46;;;;;;;;;;;;;;;27.20;58.90;99555.28;4971153;28;20002;-66
2021/07/22 11:30:12;;;;;;;;;;;;;;;28.06;51.98;99556.00;4951331;28;19922;-66
2021/07/22 11:32:37;;;;;;;;;;;;;;;28.62;46.64;99550.63;4945144;28;19915;-66
2021/07/22 11:35:03;;;;;;;;;;;;;;;29.64;42.88;99546.56;4949089;28;20420;-66
2021/07/22 11:37:28;;;;;;;;;;;;;;;29.51;41.41;99545.16;4940330;28;19922;-66
2021/07/22 11:39:54;;;;;;;;;;;;;;;28.47;41.72;99542.38;4949835;28;20009;-66
2021/07/22 11:42:20;;;;;;;;;;;;;;;30.83;40.25;99547.25;4932928;29;19921;-66
2021/07/22 11:44:59;;;;;;;;;;;;;;;31.31;39.60;99536.75;4951415;28;19973;-66
2021/07/22 11:47:29;;;;;;;;;;;;;;;29.67;39.77;99540.94;4928863;29;20001;-66
2021/07/22 11:49:55;;;;;;;;;;;;;;;28.63;45.05;99537.25;4951081;28;19921;-66
2021/07/22 11:52:27;;;;;;;;;;;;;;;26.88;51.25;99543.22;4949170;29;19914;-66
2021/07/22 11:55:05;;;;;;;;;;;;;;;26.16;49.33;99539.94;4944016;28;19926;-66
2021/07/22 11:57:37;;;;;;;;;;;;;;;26.02;55.64;99540.31;4944765;28;20565;-65
2021/07/22 12:00:12;;;;;;;;;;;;;;;26.96;48.28;99535.41;4954736;28;19925;-65
2021/07/22 12:02:42;;;;;;;;;;;;;;;27.13;50.00;99537.31;4960347;28;20304;-65
2021/07/22 12:05:08;;;;;;;;;;;;;;;26.37;52.49;99536.38;4950926;28;19914;-65
2021/07/22 12:07:33;;;;;;;;;;;;;;;26.64;47.62;99531.25;4945015;28;19919;-66
2021/07/22 12:09:59;;;;;;;;;;;;;;;26.69;50.27;99530.84;4943264;28;19938;-66
2021/07/22 12:12:24;;;;;;;;;;;;;;;26.48;51.43;99533.59;4947341;28;20038;-66
2021/07/22 12:14:50;;;;;;;;;;;;;;;26.27;54.02;99536.31;4951031;28;19915;-65
2021/07/22 12:17:15;;;;;;;;;;;;;;;28.52;50.59;99518.91;4944294;28;19915;-66
2021/07/22 12:19:46;;;;;;;;;;;;;;;27.43;52.57;99524.06;4943779;28;19915;-65
2021/07/22 12:22:19;;;;;;;;;;;;;;;26.17;55.17;99517.84;4949142;28;19958;-65
2021/07/22 12:24:45;;;;;;;;;;;;;;;27.51;49.02;99514.44;4942726;29;20080;-66
2021/07/22 12:27:29;;;;;;;;;;;;;;;29.52;46.32;99517.66;4949519;29;19926;-65
2021/07/22 12:29:54;;;;;;;;;;;;;;;29.00;45.22;99517.66;4945918;28;20372;-65
2021/07/22 12:32:20;;;;;;;;;;;;;;;28.62;43.60;99513.53;4940918;28;19921;-66
2021/07/22 12:34:45;;;;;;;;;;;;;;;28.45;50.39;99509.88;4948597;28;19918;-66
2021/07/22 12:37:11;;;;;;;;;;;;;;;28.02;45.17;99503.47;4954627;28;19962;-66
2021/07/22 12:39:36;;;;;;;;;;;;;;;29.02;41.32;99501.59;4934567;29;19957;-66
2021/07/22 12:42:08;;;;;;;;;;;;;;;31.44;39.04;99499.00;4949006;28;20407;-66